PWSweather.com
Personal Weather Stations
Station Observations
KWIPARKF
Flambeau River State Forest, Park Falls, WI 54552

Flambeau River State ForestPark Falls, WI 54552

Lat: 45.81943, Lon: -90.61676

Elevation: 1476

Station Type: Davis Vantage Pro2 Plus

Latest ConditionsUpdated 2:50:01 PM CST Sunday, Jan 19, 2020
Currently Today's Max Today's Min Today's Average
Temperature 20.6°F-6.3°C 20.6°F-6.3°C 8.2°F-13.2°C 13.1°F-10.5°C
Dew Point 16.8°F-8.4°C 16.9°F-8.4°C 4.9°F-15.1°C 10.4°F-12.0°C
Winds Calm Calm Calm -Calm - - Calm Calm
Wind Gusts -- 5.8 mph9.3 kmh - -
Humidity 85% 92% 85% 89%
Pressure 30.51 in1033.2 mb 30.51 in1033.2 mb 30.04 in1017.3 mb -
Hour Temp Dew Point Humidity Winds Wind Gusts Pressure Precip Precip Rate Daily Precip Total
02:50 PM 20.6°F-6.3°C 16.8°F-8.4°C 85% Calm Calm -- 30.51 in1033.2 mb - 0.00 in0.0 mm 0.00 in0.0 mm
02:40 PM 20.4°F-6.4°C 16.9°F-8.4°C 86% Calm Calm -- 30.51 in1033.2 mb - 0.00 in0.0 mm 0.00 in0.0 mm
02:30 PM 20.3°F-6.5°C 16.8°F-8.4°C 86% Calm Calm -- 30.50 in1032.8 mb - 0.00 in0.0 mm 0.00 in0.0 mm
02:20 PM 20.2°F-6.6°C 16.6°F-8.6°C 86% Calm Calm -- 30.50 in1032.8 mb - 0.00 in0.0 mm 0.00 in0.0 mm
02:10 PM 20.0°F-6.7°C 16.5°F-8.6°C 86% Calm Calm -- 30.50 in1032.8 mb - 0.00 in0.0 mm 0.00 in0.0 mm
02:00 PM 20.0°F-6.7°C 16.5°F-8.6°C 86% Calm Calm -- 30.49 in1032.5 mb - 0.00 in0.0 mm 0.00 in0.0 mm
01:50 PM 19.9°F-6.7°C 16.4°F-8.7°C 86% Calm Calm -- 30.49 in1032.5 mb - 0.00 in0.0 mm 0.00 in0.0 mm
01:40 PM 19.9°F-6.7°C 16.4°F-8.7°C 86% Calm Calm -- 30.48 in1032.2 mb - 0.00 in0.0 mm 0.00 in0.0 mm
01:30 PM 19.8°F-6.8°C 16.6°F-8.6°C 87% Calm Calm -- 30.48 in1032.2 mb - 0.00 in0.0 mm 0.00 in0.0 mm
01:20 PM 19.5°F-6.9°C 16.3°F-8.7°C 87% Calm Calm -- 30.49 in1032.5 mb - 0.00 in0.0 mm 0.00 in0.0 mm
01:10 PM 19.7°F-6.8°C 16.2°F-8.8°C 86% Calm Calm -- 30.48 in1032.2 mb - 0.00 in0.0 mm 0.00 in0.0 mm
01:00 PM 19.5°F-6.9°C 16.3°F-8.7°C 87% Calm Calm -- 30.48 in1032.2 mb - 0.00 in0.0 mm 0.00 in0.0 mm
12:50 PM 19.3°F-7.1°C 16.1°F-8.8°C 87% Calm Calm -- 30.48 in1032.2 mb - 0.00 in0.0 mm 0.00 in0.0 mm
12:40 PM 19.1°F-7.2°C 15.9°F-8.9°C 87% Calm Calm 5.8 mph9.3 kmh 30.48 in1032.2 mb - 0.00 in0.0 mm 0.00 in0.0 mm
12:30 PM 19.1°F-7.2°C 15.6°F-9.1°C 86% Calm Calm -- 30.47 in1031.8 mb - 0.00 in0.0 mm 0.00 in0.0 mm
12:20 PM 19.0°F-7.2°C 15.8°F-9.0°C 87% Calm Calm -- 30.47 in1031.8 mb - 0.00 in0.0 mm 0.00 in0.0 mm
12:10 PM 18.8°F-7.3°C 15.6°F-9.1°C 87% Calm Calm -- 30.47 in1031.8 mb - 0.00 in0.0 mm 0.00 in0.0 mm
12:00 PM 18.5°F-7.5°C 15.3°F-9.3°C 87% Calm Calm -- 30.46 in1031.5 mb - 0.00 in0.0 mm 0.00 in0.0 mm
11:50 AM 18.3°F-7.6°C 15.1°F-9.4°C 87% Calm Calm -- 30.46 in1031.5 mb - 0.00 in0.0 mm 0.00 in0.0 mm
11:40 AM 18.4°F-7.6°C 15.2°F-9.3°C 87% Calm Calm -- 30.46 in1031.5 mb - 0.00 in0.0 mm 0.00 in0.0 mm
11:30 AM 18.3°F-7.6°C 15.1°F-9.4°C 87% Calm Calm 3.5 mph5.6 kmh 30.46 in1031.5 mb - 0.00 in0.0 mm 0.00 in0.0 mm
11:20 AM 18.4°F-7.6°C 15.2°F-9.3°C 87% Calm Calm -- 30.45 in1031.2 mb - 0.00 in0.0 mm 0.00 in0.0 mm
11:10 AM 18.4°F-7.6°C 15.4°F-9.2°C 88% Calm Calm -- 30.45 in1031.2 mb - 0.00 in0.0 mm 0.00 in0.0 mm
11:00 AM 18.4°F-7.6°C 15.4°F-9.2°C 88% Calm Calm -- 30.45 in1031.2 mb - 0.00 in0.0 mm 0.00 in0.0 mm
10:50 AM 18.3°F-7.6°C 15.3°F-9.3°C 88% Calm Calm -- 30.45 in1031.2 mb - 0.00 in0.0 mm 0.00 in0.0 mm
10:40 AM 18.2°F-7.7°C 15.5°F-9.2°C 89% Calm Calm -- 30.44 in1030.8 mb - 0.00 in0.0 mm 0.00 in0.0 mm
10:30 AM 17.9°F-7.8°C 15.2°F-9.3°C 89% Calm Calm -- 30.44 in1030.8 mb - 0.00 in0.0 mm 0.00 in0.0 mm
10:20 AM 17.3°F-8.2°C 14.9°F-9.5°C 90% Calm Calm -- 30.43 in1030.5 mb - 0.00 in0.0 mm 0.00 in0.0 mm
10:10 AM 16.8°F-8.4°C 14.4°F-9.8°C 90% Calm Calm -- 30.43 in1030.5 mb - 0.00 in0.0 mm 0.00 in0.0 mm
10:00 AM 16.0°F-8.9°C 13.8°F-10.1°C 91% Calm Calm -- 30.42 in1030.1 mb - 0.00 in0.0 mm 0.00 in0.0 mm
09:50 AM 15.3°F-9.3°C 13.1°F-10.5°C 91% Calm Calm -- 30.42 in1030.1 mb - 0.00 in0.0 mm 0.00 in0.0 mm
09:40 AM 14.7°F-9.6°C 12.6°F-10.8°C 91% Calm Calm -- 30.41 in1029.8 mb - 0.00 in0.0 mm 0.00 in0.0 mm
09:30 AM 14.3°F-9.8°C 12.2°F-11.0°C 91% Calm Calm -- 30.41 in1029.8 mb - 0.00 in0.0 mm 0.00 in0.0 mm
09:20 AM 13.9°F-10.1°C 11.8°F-11.2°C 91% Calm Calm -- 30.40 in1029.5 mb - 0.00 in0.0 mm 0.00 in0.0 mm
09:10 AM 13.5°F-10.3°C 11.6°F-11.3°C 92% Calm Calm -- 30.40 in1029.5 mb - 0.00 in0.0 mm 0.00 in0.0 mm
09:00 AM 13.1°F-10.5°C 11.2°F-11.6°C 92% Calm Calm -- 30.39 in1029.1 mb - 0.00 in0.0 mm 0.00 in0.0 mm
08:50 AM 12.7°F-10.7°C 10.8°F-11.8°C 92% Calm Calm -- 30.39 in1029.1 mb - 0.00 in0.0 mm 0.00 in0.0 mm
08:40 AM 12.4°F-10.9°C 10.5°F-11.9°C 92% Calm Calm -- 30.38 in1028.8 mb - 0.00 in0.0 mm 0.00 in0.0 mm
08:30 AM 12.0°F-11.1°C 10.1°F-12.2°C 92% Calm Calm -- 30.37 in1028.4 mb - 0.00 in0.0 mm 0.00 in0.0 mm
08:20 AM 11.7°F-11.3°C 9.6°F-12.4°C 91% Calm Calm -- 30.36 in1028.1 mb - 0.00 in0.0 mm 0.00 in0.0 mm
08:10 AM 11.4°F-11.4°C 9.3°F-12.6°C 91% Calm Calm -- 30.36 in1028.1 mb - 0.00 in0.0 mm 0.00 in0.0 mm
08:00 AM 11.3°F-11.5°C 9.2°F-12.7°C 91% Calm Calm -- 30.35 in1027.8 mb - 0.00 in0.0 mm 0.00 in0.0 mm
07:50 AM 11.2°F-11.6°C 9.1°F-12.7°C 91% Calm Calm -- 30.35 in1027.8 mb - 0.00 in0.0 mm 0.00 in0.0 mm
07:40 AM 11.2°F-11.6°C 9.1°F-12.7°C 91% Calm Calm -- 30.34 in1027.4 mb - 0.00 in0.0 mm 0.00 in0.0 mm
07:30 AM 11.1°F-11.6°C 9.0°F-12.8°C 91% Calm Calm -- 30.34 in1027.4 mb - 0.00 in0.0 mm 0.00 in0.0 mm
07:20 AM 11.1°F-11.6°C 9.0°F-12.8°C 91% Calm Calm -- 30.33 in1027.1 mb - 0.00 in0.0 mm 0.00 in0.0 mm
07:10 AM 11.0°F-11.7°C 8.9°F-12.8°C 91% Calm Calm -- 30.32 in1026.8 mb - 0.00 in0.0 mm 0.00 in0.0 mm
07:00 AM 10.9°F-11.7°C 8.8°F-12.9°C 91% Calm Calm -- 30.31 in1026.4 mb - 0.00 in0.0 mm 0.00 in0.0 mm
06:50 AM 10.9°F-11.7°C 8.8°F-12.9°C 91% Calm Calm -- 30.30 in1026.1 mb - 0.00 in0.0 mm 0.00 in0.0 mm
06:40 AM 10.7°F-11.8°C 8.6°F-13.0°C 91% Calm Calm -- 30.30 in1026.1 mb - 0.00 in0.0 mm 0.00 in0.0 mm
06:30 AM 10.7°F-11.8°C 8.6°F-13.0°C 91% Calm Calm 2.3 mph3.7 kmh 30.30 in1026.1 mb - 0.00 in0.0 mm 0.00 in0.0 mm
06:20 AM 10.6°F-11.9°C 8.5°F-13.1°C 91% Calm Calm -- 30.29 in1025.7 mb - 0.00 in0.0 mm 0.00 in0.0 mm
06:10 AM 10.5°F-11.9°C 8.4°F-13.1°C 91% Calm Calm -- 30.28 in1025.4 mb - 0.00 in0.0 mm 0.00 in0.0 mm
06:00 AM 10.6°F-11.9°C 8.2°F-13.2°C 90% Calm Calm -- 30.27 in1025.1 mb - 0.00 in0.0 mm 0.00 in0.0 mm
05:50 AM 10.7°F-11.8°C 8.3°F-13.2°C 90% Calm Calm -- 30.27 in1025.1 mb - 0.00 in0.0 mm 0.00 in0.0 mm
05:40 AM 10.8°F-11.8°C 8.4°F-13.1°C 90% Calm Calm 1.2 mph1.9 kmh 30.26 in1024.7 mb - 0.00 in0.0 mm 0.00 in0.0 mm
05:30 AM 10.7°F-11.8°C 8.3°F-13.2°C 90% Calm Calm -- 30.25 in1024.4 mb - 0.00 in0.0 mm 0.00 in0.0 mm
05:20 AM 10.6°F-11.9°C 8.2°F-13.2°C 90% Calm Calm -- 30.24 in1024.0 mb - 0.00 in0.0 mm 0.00 in0.0 mm
05:10 AM 10.4°F-12.0°C 7.8°F-13.4°C 89% Calm Calm -- 30.23 in1023.7 mb - 0.00 in0.0 mm 0.00 in0.0 mm
05:00 AM 10.2°F-12.1°C 7.6°F-13.6°C 89% Calm Calm 1.2 mph1.9 kmh 30.23 in1023.7 mb - 0.00 in0.0 mm 0.00 in0.0 mm
04:50 AM 9.9°F-12.3°C 7.3°F-13.7°C 89% Calm Calm -- 30.22 in1023.4 mb - 0.00 in0.0 mm 0.00 in0.0 mm
04:40 AM 9.6°F-12.4°C 7.0°F-13.9°C 89% Calm Calm -- 30.21 in1023.0 mb - 0.00 in0.0 mm 0.00 in0.0 mm
04:30 AM 9.4°F-12.6°C 6.8°F-14.0°C 89% Calm Calm -- 30.21 in1023.0 mb - 0.00 in0.0 mm 0.00 in0.0 mm
04:20 AM 9.2°F-12.7°C 6.4°F-14.2°C 88% Calm Calm -- 30.21 in1023.0 mb - 0.00 in0.0 mm 0.00 in0.0 mm
04:10 AM 9.1°F-12.7°C 6.3°F-14.3°C 88% Calm Calm -- 30.20 in1022.7 mb - 0.00 in0.0 mm 0.00 in0.0 mm
04:00 AM 9.0°F-12.8°C 6.2°F-14.3°C 88% Calm Calm -- 30.20 in1022.7 mb - 0.00 in0.0 mm 0.00 in0.0 mm
03:40 AM 8.9°F-12.8°C 6.1°F-14.4°C 88% Calm Calm -- 30.18 in1022.0 mb - 0.00 in0.0 mm 0.00 in0.0 mm
03:30 AM 8.8°F-12.9°C 6.0°F-14.4°C 88% Calm Calm -- 30.17 in1021.7 mb - 0.00 in0.0 mm 0.00 in0.0 mm
03:20 AM 8.7°F-12.9°C 5.9°F-14.5°C 88% Calm Calm -- 30.16 in1021.3 mb - 0.00 in0.0 mm 0.00 in0.0 mm
03:10 AM 8.6°F-13.0°C 5.8°F-14.6°C 88% Calm Calm -- 30.16 in1021.3 mb - 0.00 in0.0 mm 0.00 in0.0 mm
03:00 AM 8.5°F-13.1°C 5.7°F-14.6°C 88% Calm Calm -- 30.15 in1021.0 mb - 0.00 in0.0 mm 0.00 in0.0 mm
02:50 AM 8.5°F-13.1°C 5.4°F-14.8°C 87% Calm Calm -- 30.15 in1021.0 mb - 0.00 in0.0 mm 0.00 in0.0 mm
02:40 AM 8.4°F-13.1°C 5.3°F-14.8°C 87% Calm Calm -- 30.14 in1020.7 mb - 0.00 in0.0 mm 0.00 in0.0 mm
02:30 AM 8.4°F-13.1°C 5.3°F-14.8°C 87% Calm Calm -- 30.14 in1020.7 mb - 0.00 in0.0 mm 0.00 in0.0 mm
02:20 AM 8.5°F-13.1°C 5.4°F-14.8°C 87% Calm Calm -- 30.13 in1020.3 mb - 0.00 in0.0 mm 0.00 in0.0 mm
02:10 AM 8.5°F-13.1°C 5.4°F-14.8°C 87% Calm Calm 2.3 mph3.7 kmh 30.12 in1020.0 mb - 0.00 in0.0 mm 0.00 in0.0 mm
02:00 AM 8.5°F-13.1°C 5.4°F-14.8°C 87% Calm Calm -- 30.11 in1019.6 mb - 0.00 in0.0 mm 0.00 in0.0 mm
01:50 AM 8.5°F-13.1°C 5.4°F-14.8°C 87% Calm Calm -- 30.10 in1019.3 mb - 0.00 in0.0 mm 0.00 in0.0 mm
01:40 AM 8.5°F-13.1°C 5.4°F-14.8°C 87% Calm Calm 1.2 mph1.9 kmh 30.10 in1019.3 mb - 0.00 in0.0 mm 0.00 in0.0 mm
01:30 AM 8.4°F-13.1°C 5.3°F-14.8°C 87% Calm Calm -- 30.09 in1019.0 mb - 0.00 in0.0 mm 0.00 in0.0 mm
01:20 AM 8.3°F-13.2°C 5.2°F-14.9°C 87% Calm Calm -- 30.08 in1018.6 mb - 0.00 in0.0 mm 0.00 in0.0 mm
01:10 AM 8.3°F-13.2°C 5.2°F-14.9°C 87% Calm Calm -- 30.08 in1018.6 mb - 0.00 in0.0 mm 0.00 in0.0 mm
01:00 AM 8.3°F-13.2°C 5.2°F-14.9°C 87% Calm Calm 1.2 mph1.9 kmh 30.07 in1018.3 mb - 0.00 in0.0 mm 0.00 in0.0 mm
12:50 AM 8.2°F-13.2°C 4.9°F-15.1°C 86% Calm Calm -- 30.07 in1018.3 mb - 0.00 in0.0 mm 0.00 in0.0 mm
12:40 AM 8.3°F-13.2°C 5.0°F-15.0°C 86% Calm Calm -- 30.07 in1018.3 mb - 0.00 in0.0 mm 0.00 in0.0 mm
12:30 AM 8.2°F-13.2°C 5.1°F-14.9°C 87% Calm Calm -- 30.06 in1017.9 mb - 0.00 in0.0 mm 0.00 in0.0 mm
12:20 AM 8.2°F-13.2°C 5.1°F-14.9°C 87% Calm Calm 1.2 mph1.9 kmh 30.05 in1017.6 mb - 0.00 in0.0 mm 0.00 in0.0 mm
12:10 AM 8.2°F-13.2°C 5.1°F-14.9°C 87% Calm Calm -- 30.05 in1017.6 mb - 0.00 in0.0 mm 0.00 in0.0 mm
12:00 AM 8.2°F-13.2°C 5.1°F-14.9°C 87% Calm Calm -- 30.04 in1017.3 mb - 0.00 in0.0 mm 0.00 in0.0 mm